createdAt,value
2019-06-20T00:00:26.569Z,31.17
2019-06-20T00:05:46.224Z,33.75
2019-06-20T00:08:18.022Z,33.15
2019-06-20T00:11:03.524Z,33.15
2019-06-20T00:14:00.402Z,34.35
2019-06-20T00:26:22.428Z,39.70
2019-06-20T00:28:55.239Z,40.43
2019-06-20T00:31:24.332Z,39.58
2019-06-20T00:33:54.922Z,40.38
2019-06-20T00:36:39.158Z,39.58
2019-06-20T00:39:17.545Z,39.23
2019-06-20T00:45:28.945Z,41.13
2019-06-20T00:51:02.012Z,39.00
2019-06-20T00:57:03.894Z,39.60
2019-06-20T00:59:33.887Z,39.35
2019-06-20T01:03:13.340Z,40.43
2019-06-20T01:05:41.179Z,40.10
2019-06-20T01:08:09.753Z,42.25
2019-06-20T01:24:43.573Z,39.08
2019-06-20T02:13:45.539Z,37.90
2019-06-20T02:19:34.690Z,35.55
2019-06-20T02:21:58.870Z,37.03
2019-06-20T02:33:46.144Z,36.50
2019-06-20T02:37:42.198Z,37.93
2019-06-20T02:41:54.734Z,35.23
2019-06-20T02:44:29.123Z,35.35
2019-06-20T02:46:53.399Z,34.43
2019-06-20T02:49:33.627Z,36.50
2019-06-20T03:01:21.035Z,35.08
2019-06-20T03:03:54.652Z,36.75
2019-06-20T03:09:25.572Z,36.68
2019-06-20T03:12:00.327Z,35.20
2019-06-20T03:17:40.202Z,29.10
2019-06-20T03:20:18.127Z,31.37
2019-06-20T03:23:28.436Z,28.15
2019-06-20T03:31:51.160Z,29.60
2019-06-20T03:34:28.242Z,28.73
2019-06-20T03:37:01.427Z,30.62
2019-06-20T03:40:05.731Z,29.67
2019-06-20T03:42:27.939Z,29.10
2019-06-20T03:45:02.292Z,27.45
2019-06-20T03:56:38.802Z,27.05
2019-06-20T04:02:37.152Z,26.45
2019-06-20T04:08:38.603Z,25.70
2019-06-20T04:14:53.593Z,24.00
2019-06-20T05:53:46.954Z,17.55
2019-06-20T06:06:53.423Z,16.95
2019-06-20T06:09:23.879Z,16.97
2019-06-20T06:11:55.747Z,16.62
2019-06-20T06:14:26.401Z,16.48
2019-06-20T06:16:55.211Z,17.80
2019-06-20T06:19:27.074Z,17.27
2019-06-20T06:21:56.549Z,17.70
2019-06-20T06:24:25.489Z,17.10
2019-06-20T06:26:59.332Z,17.82
2019-06-20T06:29:25.057Z,19.37
2019-06-20T06:31:53.774Z,17.27
2019-06-20T06:34:23.704Z,17.73
2019-06-20T06:36:55.195Z,18.42
2019-06-20T06:39:24.064Z,18.02
2019-06-20T06:41:53.022Z,17.82
2019-06-20T06:44:22.474Z,16.50
2019-06-20T06:46:55.387Z,18.07
2019-06-20T06:49:22.157Z,18.10
2019-06-20T06:51:50.946Z,18.02
2019-06-20T06:54:20.037Z,17.73
2019-06-20T06:56:49.949Z,18.00
2019-06-20T06:59:18.850Z,18.52
2019-06-20T07:01:48.260Z,18.67
2019-06-20T07:04:17.025Z,17.60
2019-06-20T07:06:46.338Z,17.77
2019-06-20T07:09:15.265Z,17.90
2019-06-20T07:11:44.098Z,17.02
2019-06-20T07:14:12.854Z,18.40
2019-06-20T07:16:41.775Z,18.23
2019-06-20T07:19:10.686Z,18.40
2019-06-20T07:21:39.535Z,17.82
2019-06-20T07:24:08.374Z,18.20
2019-06-20T07:26:37.363Z,18.27
2019-06-20T07:29:06.235Z,18.00
2019-06-20T07:31:35.096Z,17.50
2019-06-20T07:34:04.238Z,17.30
2019-06-20T07:36:33.112Z,17.52
2019-06-20T07:39:02.033Z,18.98
2019-06-20T07:41:30.805Z,16.50
2019-06-20T07:43:59.611Z,16.77
2019-06-20T07:46:28.532Z,16.77
2019-06-20T07:48:57.239Z,16.65
2019-06-20T07:51:25.982Z,16.60
2019-06-20T07:53:54.787Z,16.40
2019-06-20T07:56:23.525Z,16.00
2019-06-20T07:59:27.391Z,15.85
2019-06-20T08:02:22.070Z,15.25
2019-06-20T08:04:46.796Z,14.90
2019-06-20T08:07:17.380Z,15.35
2019-06-20T08:09:46.303Z,15.32
2019-06-20T08:12:15.194Z,16.17
2019-06-20T08:14:44.133Z,14.68
2019-06-20T08:20:33.978Z,15.53
2019-06-20T08:23:02.925Z,15.80
2019-06-20T08:25:31.929Z,15.98
2019-06-20T08:28:02.338Z,15.45
2019-06-20T08:30:34.014Z,14.75
2019-06-20T08:33:07.454Z,15.60
2019-06-20T08:35:33.868Z,16.00
2019-06-20T08:38:07.073Z,14.68
2019-06-20T08:40:39.232Z,15.35
2019-06-20T08:43:08.340Z,15.60
2019-06-20T08:45:38.757Z,16.12
2019-06-20T08:48:09.502Z,15.13
2019-06-20T08:50:44.224Z,15.85
2019-06-20T08:53:13.288Z,15.25
2019-06-20T08:55:42.471Z,15.20
2019-06-20T08:58:16.008Z,14.63
2019-06-20T09:00:45.217Z,14.90
2019-06-20T09:03:15.720Z,15.75
2019-06-20T09:05:44.612Z,15.55
2019-06-20T09:08:13.527Z,15.93
2019-06-20T09:10:42.947Z,14.60
2019-06-20T09:13:13.179Z,15.35
2019-06-20T09:15:42.711Z,14.23
2019-06-20T09:18:12.087Z,15.75
2019-06-20T09:20:41.555Z,15.00
2019-06-20T09:23:13.596Z,15.72
2019-06-20T09:25:45.783Z,16.42
2019-06-20T09:28:55.652Z,16.77
2019-06-20T09:31:01.455Z,16.82
2019-06-20T09:33:30.715Z,14.83
2019-06-20T09:36:32.873Z,15.58
2019-06-20T09:38:41.239Z,16.07
2019-06-20T09:41:31.557Z,16.65
2019-06-20T09:44:03.633Z,15.10
2019-06-20T09:46:34.129Z,16.35
2019-06-20T09:49:04.826Z,15.68
2019-06-20T09:51:41.498Z,17.35
2019-06-20T09:57:10.387Z,17.32
2019-06-20T09:59:30.887Z,17.07
2019-06-20T10:02:04.701Z,16.67
2019-06-20T10:04:49.494Z,16.65
2019-06-20T10:07:27.415Z,16.37
2019-06-20T10:10:07.724Z,17.85
2019-06-20T10:12:34.924Z,16.70
2019-06-20T10:18:04.458Z,16.93
2019-06-20T10:20:41.256Z,16.95
2019-06-20T10:23:12.908Z,16.77
2019-06-20T10:28:36.798Z,15.43
2019-06-20T10:31:07.751Z,15.88
2019-06-20T10:33:41.457Z,16.48
2019-06-20T10:36:24.237Z,17.23
2019-06-20T10:39:14.336Z,16.65
2019-06-20T10:41:44.796Z,16.27
2019-06-20T10:44:14.505Z,16.48
2019-06-20T10:47:11.774Z,16.27
2019-06-20T10:49:33.160Z,15.35
2019-06-20T10:52:06.581Z,15.85
2019-06-20T10:54:41.817Z,15.38
2019-06-20T10:57:29.311Z,15.35
2019-06-20T11:00:05.441Z,14.45
2019-06-20T11:04:58.346Z,14.45
2019-06-20T11:13:00.673Z,13.88
2019-06-20T11:14:01.749Z,15.00
2019-06-20T11:15:31.100Z,15.55
2019-06-20T11:19:29.037Z,14.75
2019-06-20T11:20:55.452Z,15.08
2019-06-20T11:25:59.382Z,14.25
2019-06-20T11:28:42.946Z,14.93
2019-06-20T11:31:09.104Z,15.10
2019-06-20T11:33:52.164Z,13.50
2019-06-20T11:39:03.868Z,13.43
2019-06-20T11:58:47.113Z,13.98
2019-06-20T12:01:32.983Z,14.47
2019-06-20T12:03:55.354Z,13.58
2019-06-20T12:06:36.134Z,13.38
2019-06-20T12:09:13.492Z,13.78
2019-06-20T12:11:44.526Z,12.18
2019-06-20T12:14:13.477Z,13.80
2019-06-20T12:16:42.424Z,13.45
2019-06-20T12:19:11.809Z,13.98
2019-06-20T12:21:42.647Z,13.38
2019-06-20T12:24:11.289Z,13.70
2019-06-20T12:26:53.965Z,14.20
2019-06-20T12:29:22.997Z,13.03
2019-06-20T12:31:56.352Z,12.88
2019-06-20T12:34:26.146Z,12.98
2019-06-20T12:36:57.776Z,12.23
2019-06-20T12:39:52.370Z,12.65
2019-06-20T12:42:06.487Z,11.30
2019-06-20T12:45:13.217Z,12.15
2019-06-20T12:47:14.457Z,11.63
2019-06-20T12:50:34.691Z,11.03
2019-06-20T12:52:21.057Z,9.75
2019-06-20T12:54:53.579Z,11.05
2019-06-20T12:57:28.600Z,10.78
2019-06-20T12:59:59.124Z,9.98
2019-06-20T13:02:49.794Z,10.15
2019-06-20T13:05:12.757Z,9.73
2019-06-20T13:07:38.683Z,9.88
2019-06-20T13:10:11.170Z,10.05
2019-06-20T13:12:44.319Z,9.38
2019-06-20T13:15:14.179Z,10.25
2019-06-20T13:17:43.687Z,10.08
2019-06-20T13:20:15.473Z,9.43
2019-06-20T13:22:49.524Z,9.30
2019-06-20T13:25:18.787Z,10.13
2019-06-20T13:28:13.679Z,10.25
2019-06-20T13:30:31.370Z,10.82
2019-06-20T13:33:01.876Z,9.83
2019-06-20T13:35:41.976Z,9.15
2019-06-20T13:38:13.888Z,9.90
2019-06-20T13:40:49.368Z,9.95
2019-06-20T13:43:16.310Z,10.18
2019-06-20T13:49:34.390Z,10.30
2019-06-20T13:54:43.431Z,10.43
2019-06-20T13:57:55.617Z,9.88
2019-06-20T14:05:33.694Z,9.23
2019-06-20T14:10:58.278Z,9.60
2019-06-20T14:13:27.170Z,10.30
2019-06-20T14:15:55.961Z,9.85
2019-06-20T14:18:24.836Z,9.90
2019-06-20T14:20:55.164Z,10.30
2019-06-20T14:24:11.385Z,11.57
2019-06-20T14:26:25.895Z,11.00
2019-06-20T14:28:44.354Z,10.38
2019-06-20T14:31:13.397Z,10.65
2019-06-20T14:33:43.046Z,10.50
2019-06-20T14:36:12.967Z,10.10
2019-06-20T14:38:45.715Z,11.28
2019-06-20T14:41:14.321Z,11.15
2019-06-20T14:43:44.712Z,10.80
2019-06-20T14:46:18.508Z,10.18
2019-06-20T14:48:50.197Z,10.03
2019-06-20T14:51:26.195Z,9.43
2019-06-20T14:53:52.690Z,8.85
2019-06-20T14:56:21.794Z,9.63
2019-06-20T14:58:51.561Z,9.13
2019-06-20T15:01:28.667Z,9.10
2019-06-20T15:04:07.864Z,8.90
2019-06-20T15:06:36.751Z,9.08
2019-06-20T15:09:07.634Z,8.75
2019-06-20T15:11:54.960Z,8.73
2019-06-20T15:15:12.563Z,8.75
2019-06-20T15:33:12.248Z,7.12
2019-06-20T15:39:24.755Z,7.58
2019-06-20T15:55:22.065Z,6.90
2019-06-20T16:04:10.956Z,7.28
2019-06-20T16:06:57.096Z,7.05
2019-06-20T16:09:23.349Z,7.00
2019-06-20T16:11:58.728Z,6.80
2019-06-20T16:14:34.397Z,6.83
2019-06-20T16:17:13.471Z,6.92
2019-06-20T16:19:52.974Z,6.17
2019-06-20T16:22:26.545Z,6.50
2019-06-20T16:25:11.840Z,6.30
2019-06-20T16:27:48.520Z,6.35
2019-06-20T16:30:18.791Z,6.00
2019-06-20T16:32:50.196Z,6.47
2019-06-20T16:37:09.218Z,6.78
2019-06-20T16:38:05.198Z,6.22
2019-06-20T16:40:49.065Z,7.28
2019-06-20T16:43:18.077Z,6.55
2019-06-20T16:45:52.238Z,7.33
2019-06-20T16:48:27.210Z,7.33
2019-06-20T16:50:51.903Z,7.67
2019-06-20T16:53:36.595Z,7.53
2019-06-20T16:56:01.496Z,7.75
2019-06-20T16:58:30.400Z,7.50
2019-06-20T17:01:00.871Z,7.70
2019-06-20T17:05:26.092Z,8.10
2019-06-20T17:06:29.986Z,7.37
2019-06-20T17:09:02.113Z,7.15
2019-06-20T17:15:00.262Z,7.25
2019-06-20T17:17:30.639Z,7.95
2019-06-20T17:19:59.951Z,8.05
2019-06-20T17:22:29.954Z,7.97
2019-06-20T17:24:58.895Z,7.75
2019-06-20T17:27:28.222Z,8.68
2019-06-20T17:30:02.032Z,7.53
2019-06-20T17:32:34.787Z,8.60
2019-06-20T17:35:05.264Z,7.47
2019-06-20T17:37:36.162Z,8.15
2019-06-20T17:40:09.658Z,8.03
2019-06-20T17:42:50.538Z,8.83
2019-06-20T17:45:24.570Z,8.28
2019-06-20T17:47:57.483Z,8.00
2019-06-20T17:50:34.517Z,8.80
2019-06-20T17:53:03.707Z,8.70
2019-06-20T17:55:38.466Z,8.33
2019-06-20T17:58:28.136Z,8.23
2019-06-20T18:01:00.558Z,8.75
2019-06-20T18:03:30.901Z,8.55
2019-06-20T18:05:59.893Z,8.68
2019-06-20T18:08:34.174Z,8.25
2019-06-20T18:11:05.099Z,8.25
2019-06-20T18:13:33.736Z,8.68
2019-06-20T18:16:02.727Z,9.08
2019-06-20T18:18:34.157Z,8.70
2019-06-20T18:21:02.996Z,9.40
2019-06-20T18:23:31.868Z,9.30
2019-06-20T18:26:03.683Z,8.98
2019-06-20T18:28:32.722Z,9.85
2019-06-20T18:31:01.997Z,9.88
2019-06-20T18:33:30.768Z,10.08
2019-06-20T18:36:01.036Z,10.32
2019-06-20T18:38:31.356Z,9.55
2019-06-20T18:41:00.365Z,10.65
2019-06-20T18:43:29.344Z,10.30
2019-06-20T18:45:58.145Z,10.15
2019-06-20T18:48:31.705Z,9.68
2019-06-20T18:51:09.693Z,10.78
2019-06-20T18:53:38.744Z,10.70
2019-06-20T18:56:07.517Z,10.45
2019-06-20T18:58:36.240Z,11.05
2019-06-20T19:01:05.285Z,10.72
2019-06-20T19:03:39.174Z,10.70
2019-06-20T19:06:08.001Z,11.18
2019-06-20T19:09:06.570Z,11.45
2019-06-20T19:11:10.957Z,11.78
2019-06-20T19:13:41.578Z,11.18
2019-06-20T19:16:13.401Z,11.85
2019-06-20T19:18:42.295Z,11.68
2019-06-20T19:21:11.430Z,11.65
2019-06-20T19:23:40.206Z,11.57
2019-06-20T19:26:10.710Z,11.95
2019-06-20T19:28:39.488Z,11.93
2019-06-20T19:31:08.298Z,11.75
2019-06-20T19:33:37.071Z,12.15
2019-06-20T19:36:08.994Z,13.13
2019-06-20T19:38:39.438Z,12.70
2019-06-20T19:41:08.595Z,12.18
2019-06-20T19:43:37.444Z,12.63
2019-06-20T19:46:06.258Z,13.08
2019-06-20T19:48:38.268Z,12.25
2019-06-20T19:51:07.215Z,12.88
2019-06-20T19:53:36.062Z,12.13
2019-06-20T19:56:04.924Z,11.85
2019-06-20T19:58:41.712Z,12.65
2019-06-20T20:01:14.550Z,14.23
2019-06-20T20:03:47.001Z,13.20
2019-06-20T20:06:13.349Z,14.20
2019-06-20T20:08:44.328Z,13.15
2019-06-20T20:11:12.885Z,13.20
2019-06-20T20:13:43.585Z,12.47
2019-06-20T20:16:12.364Z,13.65
2019-06-20T20:18:58.867Z,13.80
2019-06-20T20:21:20.855Z,13.43
2019-06-20T20:23:53.338Z,13.20
2019-06-20T20:26:23.740Z,13.53
2019-06-20T20:28:52.675Z,13.22
2019-06-20T20:31:21.522Z,12.93
2019-06-20T20:33:50.310Z,13.22
2019-06-20T20:36:24.901Z,13.10
2019-06-20T20:38:49.649Z,13.48
2019-06-20T20:41:18.859Z,13.68
2019-06-20T20:46:44.453Z,13.58
2019-06-20T20:50:27.027Z,14.53
2019-06-20T20:51:51.034Z,14.65
2019-06-20T20:54:19.997Z,14.75
2019-06-20T20:56:50.522Z,14.13
2019-06-20T20:59:19.578Z,14.80
2019-06-20T21:01:49.326Z,13.70
2019-06-20T21:04:18.087Z,15.53
2019-06-20T21:06:47.011Z,14.45
2019-06-20T21:09:19.561Z,14.65
2019-06-20T21:12:07.237Z,15.72
2019-06-20T21:14:49.522Z,15.23
2019-06-20T21:17:19.952Z,14.55
2019-06-20T21:19:51.143Z,14.68
2019-06-20T21:22:31.113Z,16.00
2019-06-20T21:25:06.040Z,15.58
2019-06-20T21:30:32.032Z,16.42
2019-06-20T21:35:10.996Z,15.32
2019-06-20T21:35:41.087Z,16.97
2019-06-20T22:15:01.510Z,7.30
2019-06-20T22:28:41.963Z,9.43
2019-06-20T22:32:27.240Z,10.13
2019-06-20T23:12:04.625Z,8.85
2019-06-20T23:26:57.520Z,11.48
2019-06-20T23:30:12.746Z,11.15
2019-06-20T23:32:20.081Z,11.50
2019-06-20T23:44:55.834Z,10.48
2019-06-20T23:46:11.261Z,10.75
2019-06-20T23:48:50.731Z,10.65
